<?xml version='1.0' encoding='UTF-8'?>
<gpx xmlns="http://www.topografix.com/GPX/1/1" creator="www.balnam.be" version="1.1" xmlns:xsi="http://www.w3.org/2001/XMLSchema-instance" xsi:schemaLocation="http://www.topografix.com/GPX/1/1 http://www.topografix.com/GPX/1/1/gpx.xsd">
<trk>
<name>lhvgr44</name>
<cmt>v</cmt>
<desc>Grand-Rechain Sentier n°44 </desc>
<link href="https://chemins.be/grandrechain/sentier/44"/><trkseg>
<trkpt lat="50.605579" lon="5.795010"><time>2026-05-07T20:36:57Z</time></trkpt>
<trkpt lat="50.605218" lon="5.795105"><time>2026-05-07T20:46:57Z</time></trkpt>
<trkpt lat="50.605129" lon="5.795068"><time>2026-05-07T20:56:57Z</time></trkpt>
<trkpt lat="50.604957" lon="5.794869"><time>2026-05-07T21:06:57Z</time></trkpt>
<trkpt lat="50.604762" lon="5.794680"><time>2026-05-07T21:16:57Z</time></trkpt>
<trkpt lat="50.604512" lon="5.794488"><time>2026-05-07T21:26:57Z</time></trkpt>
<trkpt lat="50.604208" lon="5.794366"><time>2026-05-07T21:36:57Z</time></trkpt>
<trkpt lat="50.603679" lon="5.794209"><time>2026-05-07T21:46:57Z</time></trkpt>
<trkpt lat="50.603310" lon="5.794268"><time>2026-05-07T21:56:57Z</time></trkpt>
<trkpt lat="50.602967" lon="5.794272"><time>2026-05-07T22:06:57Z</time></trkpt>
<trkpt lat="50.602786" lon="5.794465"><time>2026-05-07T22:16:57Z</time></trkpt>
<trkpt lat="50.602557" lon="5.794825"><time>2026-05-07T22:26:57Z</time></trkpt>
<trkpt lat="50.602460" lon="5.795345"><time>2026-05-07T22:36:57Z</time></trkpt>
<trkpt lat="50.602428" lon="5.795824"><time>2026-05-07T22:46:57Z</time></trkpt>
<trkpt lat="50.602436" lon="5.795867"><time>2026-05-07T22:56:57Z</time></trkpt>
<trkpt lat="50.602440" lon="5.796277"><time>2026-05-07T23:06:57Z</time></trkpt>
<trkpt lat="50.602267" lon="5.796497"><time>2026-05-07T23:16:57Z</time></trkpt>
<trkpt lat="50.602029" lon="5.796767"><time>2026-05-07T23:26:57Z</time></trkpt>
<trkpt lat="50.601901" lon="5.796995"><time>2026-05-07T23:36:57Z</time></trkpt>
<trkpt lat="50.601644" lon="5.797411"><time>2026-05-07T23:46:57Z</time></trkpt>
<trkpt lat="50.601396" lon="5.797842"><time>2026-05-07T23:56:57Z</time></trkpt>
<trkpt lat="50.601221" lon="5.798204"><time>2026-05-08T00:06:57Z</time></trkpt>
<trkpt lat="50.600983" lon="5.798479"><time>2026-05-08T00:16:57Z</time></trkpt>
<trkpt lat="50.600509" lon="5.799030"><time>2026-05-08T00:26:57Z</time></trkpt>
<trkpt lat="50.599961" lon="5.799649"><time>2026-05-08T00:36:57Z</time></trkpt>
<trkpt lat="50.599723" lon="5.800037"><time>2026-05-08T00:46:57Z</time></trkpt>
<trkpt lat="50.599495" lon="5.800313"><time>2026-05-08T00:56:57Z</time></trkpt>
</trkseg></trk>
<trk>
<name>lhvgr44</name>
<cmt>q</cmt>
<desc>Grand-Rechain Sentier n°44 </desc>
<link href="https://chemins.be/grandrechain/sentier/44"/><trkseg>
<trkpt lat="50.599495" lon="5.800313"><time>2026-05-08T00:56:57Z</time></trkpt>
<trkpt lat="50.598678" lon="5.801715"><time>2026-05-08T01:06:57Z</time></trkpt>
<trkpt lat="50.598692" lon="5.802055"><time>2026-05-08T01:16:57Z</time></trkpt>
<trkpt lat="50.597018" lon="5.803322"><time>2026-05-08T01:26:57Z</time></trkpt>
</trkseg>
</trk>
</gpx>